sensor_id;sensor_type;location;lat;lon;timestamp;P1;durP1;ratioP1;P2;durP2;ratioP2
4812;SDS011;2420;51.202;8.698;2023-06-22T00:01:48;13.60;;;12.25;;
4812;SDS011;2420;51.202;8.698;2023-06-22T00:04:14;14.48;;;12.95;;
4812;SDS011;2420;51.202;8.698;2023-06-22T00:06:40;16.58;;;14.88;;
4812;SDS011;2420;51.202;8.698;2023-06-22T00:09:05;15.13;;;13.73;;
4812;SDS011;2420;51.202;8.698;2023-06-22T00:11:31;16.05;;;14.38;;
4812;SDS011;2420;51.202;8.698;2023-06-22T00:13:58;14.68;;;13.25;;
4812;SDS011;2420;51.202;8.698;2023-06-22T00:16:24;16.25;;;14.55;;
4812;SDS011;2420;51.202;8.698;2023-06-22T00:18:49;15.55;;;14.02;;
4812;SDS011;2420;51.202;8.698;2023-06-22T00:21:15;15.23;;;13.70;;
4812;SDS011;2420;51.202;8.698;2023-06-22T00:23:41;14.85;;;13.45;;
4812;SDS011;2420;51.202;8.698;2023-06-22T00:26:06;14.52;;;13.13;;
4812;SDS011;2420;51.202;8.698;2023-06-22T00:28:33;16.20;;;13.93;;
4812;SDS011;2420;51.202;8.698;2023-06-22T00:30:59;14.45;;;12.95;;
4812;SDS011;2420;51.202;8.698;2023-06-22T00:33:25;14.27;;;12.85;;
4812;SDS011;2420;51.202;8.698;2023-06-22T00:35:53;14.75;;;13.25;;
4812;SDS011;2420;51.202;8.698;2023-06-22T00:38:19;15.18;;;13.68;;
4812;SDS011;2420;51.202;8.698;2023-06-22T00:40:45;14.95;;;13.35;;
4812;SDS011;2420;51.202;8.698;2023-06-22T00:43:10;14.73;;;13.27;;
4812;SDS011;2420;51.202;8.698;2023-06-22T00:45:36;14.07;;;12.55;;
4812;SDS011;2420;51.202;8.698;2023-06-22T00:48:01;14.88;;;13.38;;
4812;SDS011;2420;51.202;8.698;2023-06-22T00:50:29;16.90;;;14.25;;
4812;SDS011;2420;51.202;8.698;2023-06-22T00:52:58;16.02;;;14.35;;
4812;SDS011;2420;51.202;8.698;2023-06-22T00:55:26;16.02;;;14.45;;
4812;SDS011;2420;51.202;8.698;2023-06-22T00:57:52;15.77;;;14.15;;
4812;SDS011;2420;51.202;8.698;2023-06-22T01:00:22;15.68;;;14.07;;
4812;SDS011;2420;51.202;8.698;2023-06-22T01:02:52;16.35;;;14.55;;
4812;SDS011;2420;51.202;8.698;2023-06-22T01:05:18;16.33;;;14.32;;
4812;SDS011;2420;51.202;8.698;2023-06-22T01:10:43;15.57;;;13.98;;
4812;SDS011;2420;51.202;8.698;2023-06-22T01:13:28;16.58;;;14.93;;
4812;SDS011;2420;51.202;8.698;2023-06-22T01:16:01;17.48;;;15.68;;
4812;SDS011;2420;51.202;8.698;2023-06-22T01:18:30;17.50;;;15.70;;
4812;SDS011;2420;51.202;8.698;2023-06-22T01:20:58;16.73;;;15.13;;
4812;SDS011;2420;51.202;8.698;2023-06-22T01:26:19;15.48;;;13.90;;
4812;SDS011;2420;51.202;8.698;2023-06-22T01:28:54;18.13;;;16.13;;
4812;SDS011;2420;51.202;8.698;2023-06-22T01:31:23;16.88;;;15.18;;
4812;SDS011;2420;51.202;8.698;2023-06-22T01:33:54;18.08;;;16.02;;
4812;SDS011;2420;51.202;8.698;2023-06-22T01:36:23;18.27;;;16.38;;
4812;SDS011;2420;51.202;8.698;2023-06-22T01:38:50;16.98;;;15.18;;
4812;SDS011;2420;51.202;8.698;2023-06-22T01:41:17;18.90;;;16.80;;
4812;SDS011;2420;51.202;8.698;2023-06-22T01:43:44;16.42;;;14.70;;
4812;SDS011;2420;51.202;8.698;2023-06-22T01:46:10;18.60;;;16.70;;
4812;SDS011;2420;51.202;8.698;2023-06-22T01:48:37;16.80;;;15.10;;
4812;SDS011;2420;51.202;8.698;2023-06-22T01:51:04;17.15;;;15.40;;
4812;SDS011;2420;51.202;8.698;2023-06-22T01:53:29;16.77;;;14.98;;
4812;SDS011;2420;51.202;8.698;2023-06-22T01:55:55;19.02;;;16.33;;
4812;SDS011;2420;51.202;8.698;2023-06-22T01:58:23;18.38;;;16.38;;
4812;SDS011;2420;51.202;8.698;2023-06-22T02:01:11;18.25;;;14.68;;
4812;SDS011;2420;51.202;8.698;2023-06-22T02:03:43;17.73;;;15.82;;
4812;SDS011;2420;51.202;8.698;2023-06-22T02:06:14;17.05;;;15.35;;
4812;SDS011;2420;51.202;8.698;2023-06-22T02:08:48;15.60;;;14.00;;
4812;SDS011;2420;51.202;8.698;2023-06-22T02:11:18;16.80;;;15.13;;
4812;SDS011;2420;51.202;8.698;2023-06-22T02:13:46;16.00;;;14.40;;
4812;SDS011;2420;51.202;8.698;2023-06-22T02:16:13;16.40;;;14.75;;
4812;SDS011;2420;51.202;8.698;2023-06-22T02:18:50;16.40;;;14.80;;
4812;SDS011;2420;51.202;8.698;2023-06-22T02:21:19;15.63;;;14.13;;
4812;SDS011;2420;51.202;8.698;2023-06-22T02:23:45;16.08;;;14.48;;
4812;SDS011;2420;51.202;8.698;2023-06-22T02:26:11;16.55;;;14.95;;
4812;SDS011;2420;51.202;8.698;2023-06-22T02:28:38;16.98;;;15.27;;
4812;SDS011;2420;51.202;8.698;2023-06-22T02:31:03;16.40;;;14.70;;
4812;SDS011;2420;51.202;8.698;2023-06-22T02:33:29;17.05;;;15.43;;
4812;SDS011;2420;51.202;8.698;2023-06-22T02:35:55;17.55;;;15.75;;
4812;SDS011;2420;51.202;8.698;2023-06-22T02:38:21;16.02;;;14.40;;
4812;SDS011;2420;51.202;8.698;2023-06-22T02:40:48;16.48;;;14.85;;
4812;SDS011;2420;51.202;8.698;2023-06-22T02:43:13;16.23;;;14.52;;
4812;SDS011;2420;51.202;8.698;2023-06-22T02:45:39;15.50;;;14.00;;
4812;SDS011;2420;51.202;8.698;2023-06-22T02:48:05;17.45;;;15.68;;
4812;SDS011;2420;51.202;8.698;2023-06-22T02:50:30;15.80;;;14.20;;
4812;SDS011;2420;51.202;8.698;2023-06-22T02:52:56;15.57;;;13.98;;
4812;SDS011;2420;51.202;8.698;2023-06-22T02:55:23;15.07;;;13.55;;
4812;SDS011;2420;51.202;8.698;2023-06-22T02:57:48;14.98;;;13.52;;
4812;SDS011;2420;51.202;8.698;2023-06-22T03:00:17;15.27;;;13.63;;
4812;SDS011;2420;51.202;8.698;2023-06-22T03:02:44;15.45;;;13.95;;
4812;SDS011;2420;51.202;8.698;2023-06-22T03:05:11;14.93;;;13.43;;
4812;SDS011;2420;51.202;8.698;2023-06-22T03:07:41;15.48;;;13.98;;
4812;SDS011;2420;51.202;8.698;2023-06-22T03:10:08;14.00;;;12.60;;
4812;SDS011;2420;51.202;8.698;2023-06-22T03:12:34;15.90;;;14.23;;
4812;SDS011;2420;51.202;8.698;2023-06-22T03:15:00;15.73;;;14.13;;
4812;SDS011;2420;51.202;8.698;2023-06-22T03:17:25;14.40;;;13.00;;
4812;SDS011;2420;51.202;8.698;2023-06-22T03:19:51;15.65;;;14.07;;
4812;SDS011;2420;51.202;8.698;2023-06-22T03:22:16;14.93;;;13.43;;
4812;SDS011;2420;51.202;8.698;2023-06-22T03:24:42;15.85;;;14.25;;
4812;SDS011;2420;51.202;8.698;2023-06-22T03:27:07;16.95;;;15.25;;
4812;SDS011;2420;51.202;8.698;2023-06-22T03:29:33;16.10;;;14.48;;
4812;SDS011;2420;51.202;8.698;2023-06-22T03:32:02;18.60;;;16.60;;
4812;SDS011;2420;51.202;8.698;2023-06-22T03:34:29;16.83;;;15.20;;
4812;SDS011;2420;51.202;8.698;2023-06-22T03:36:58;17.13;;;15.32;;
4812;SDS011;2420;51.202;8.698;2023-06-22T03:39:24;16.88;;;15.10;;
4812;SDS011;2420;51.202;8.698;2023-06-22T03:41:49;18.30;;;16.48;;
4812;SDS011;2420;51.202;8.698;2023-06-22T03:44:15;18.02;;;16.23;;
4812;SDS011;2420;51.202;8.698;2023-06-22T03:46:40;16.48;;;14.80;;
4812;SDS011;2420;51.202;8.698;2023-06-22T03:49:06;18.85;;;16.95;;
4812;SDS011;2420;51.202;8.698;2023-06-22T03:51:32;18.38;;;16.58;;
4812;SDS011;2420;51.202;8.698;2023-06-22T03:53:58;19.45;;;17.35;;
4812;SDS011;2420;51.202;8.698;2023-06-22T03:56:23;17.10;;;15.07;;
4812;SDS011;2420;51.202;8.698;2023-06-22T03:58:49;17.33;;;15.52;;
4812;SDS011;2420;51.202;8.698;2023-06-22T04:01:14;16.70;;;15.10;;
4812;SDS011;2420;51.202;8.698;2023-06-22T04:03:42;18.23;;;16.42;;
4812;SDS011;2420;51.202;8.698;2023-06-22T04:06:07;17.80;;;16.00;;
4812;SDS011;2420;51.202;8.698;2023-06-22T04:08:33;18.02;;;16.23;;
4812;SDS011;2420;51.202;8.698;2023-06-22T04:10:59;18.52;;;16.65;;
4812;SDS011;2420;51.202;8.698;2023-06-22T04:13:24;16.75;;;15.05;;
4812;SDS011;2420;51.202;8.698;2023-06-22T04:15:50;17.80;;;16.00;;
4812;SDS011;2420;51.202;8.698;2023-06-22T04:18:15;17.58;;;15.77;;
4812;SDS011;2420;51.202;8.698;2023-06-22T04:20:41;15.88;;;14.18;;
4812;SDS011;2420;51.202;8.698;2023-06-22T04:23:06;16.38;;;14.68;;
4812;SDS011;2420;51.202;8.698;2023-06-22T04:25:32;16.38;;;14.68;;
4812;SDS011;2420;51.202;8.698;2023-06-22T04:27:57;16.33;;;14.63;;
4812;SDS011;2420;51.202;8.698;2023-06-22T04:30:23;15.93;;;14.23;;
4812;SDS011;2420;51.202;8.698;2023-06-22T04:32:49;16.73;;;14.80;;
4812;SDS011;2420;51.202;8.698;2023-06-22T04:35:21;14.70;;;13.25;;
4812;SDS011;2420;51.202;8.698;2023-06-22T04:37:50;15.65;;;14.07;;
4812;SDS011;2420;51.202;8.698;2023-06-22T04:40:19;15.85;;;14.27;;
4812;SDS011;2420;51.202;8.698;2023-06-22T04:42:46;18.38;;;15.77;;
4812;SDS011;2420;51.202;8.698;2023-06-22T04:45:17;16.42;;;14.75;;
4812;SDS011;2420;51.202;8.698;2023-06-22T04:47:43;16.17;;;14.48;;
4812;SDS011;2420;51.202;8.698;2023-06-22T04:50:11;16.35;;;14.65;;
4812;SDS011;2420;51.202;8.698;2023-06-22T04:52:37;15.82;;;13.98;;
4812;SDS011;2420;51.202;8.698;2023-06-22T04:55:03;15.95;;;14.10;;
4812;SDS011;2420;51.202;8.698;2023-06-22T04:57:29;15.90;;;14.30;;
4812;SDS011;2420;51.202;8.698;2023-06-22T05:00:00;16.67;;;15.00;;
4812;SDS011;2420;51.202;8.698;2023-06-22T05:02:41;16.50;;;14.80;;
4812;SDS011;2420;51.202;8.698;2023-06-22T05:05:07;16.75;;;15.05;;
4812;SDS011;2420;51.202;8.698;2023-06-22T05:07:36;16.98;;;15.07;;
4812;SDS011;2420;51.202;8.698;2023-06-22T05:10:04;14.98;;;13.48;;
4812;SDS011;2420;51.202;8.698;2023-06-22T05:12:30;16.35;;;14.52;;
4812;SDS011;2420;51.202;8.698;2023-06-22T05:14:56;16.15;;;14.40;;
4812;SDS011;2420;51.202;8.698;2023-06-22T05:17:21;16.05;;;14.20;;
4812;SDS011;2420;51.202;8.698;2023-06-22T05:19:47;14.25;;;12.75;;
4812;SDS011;2420;51.202;8.698;2023-06-22T05:22:16;13.85;;;12.35;;
4812;SDS011;2420;51.202;8.698;2023-06-22T05:24:42;15.15;;;13.57;;
4812;SDS011;2420;51.202;8.698;2023-06-22T05:27:08;18.08;;;14.55;;
4812;SDS011;2420;51.202;8.698;2023-06-22T05:29:34;16.42;;;14.60;;
4812;SDS011;2420;51.202;8.698;2023-06-22T05:32:00;15.30;;;13.77;;
4812;SDS011;2420;51.202;8.698;2023-06-22T05:34:26;18.30;;;16.23;;
4812;SDS011;2420;51.202;8.698;2023-06-22T05:36:51;16.33;;;14.63;;
4812;SDS011;2420;51.202;8.698;2023-06-22T05:39:17;18.38;;;16.48;;
4812;SDS011;2420;51.202;8.698;2023-06-22T05:41:42;16.95;;;14.75;;
4812;SDS011;2420;51.202;8.698;2023-06-22T05:44:09;18.90;;;16.90;;
4812;SDS011;2420;51.202;8.698;2023-06-22T05:46:34;22.73;;;18.35;;
4812;SDS011;2420;51.202;8.698;2023-06-22T05:49:00;19.20;;;17.20;;
4812;SDS011;2420;51.202;8.698;2023-06-22T05:51:25;21.17;;;18.88;;
4812;SDS011;2420;51.202;8.698;2023-06-22T05:53:51;22.25;;;19.15;;
4812;SDS011;2420;51.202;8.698;2023-06-22T05:56:16;22.10;;;19.80;;
4812;SDS011;2420;51.202;8.698;2023-06-22T05:58:42;21.30;;;19.00;;
4812;SDS011;2420;51.202;8.698;2023-06-22T06:01:08;19.27;;;17.13;;
4812;SDS011;2420;51.202;8.698;2023-06-22T06:03:33;19.42;;;16.77;;
4812;SDS011;2420;51.202;8.698;2023-06-22T06:05:59;19.15;;;17.15;;
4812;SDS011;2420;51.202;8.698;2023-06-22T06:08:27;18.77;;;16.65;;
4812;SDS011;2420;51.202;8.698;2023-06-22T06:10:53;17.20;;;15.27;;
4812;SDS011;2420;51.202;8.698;2023-06-22T06:13:20;17.88;;;14.27;;
4812;SDS011;2420;51.202;8.698;2023-06-22T06:15:45;17.13;;;15.35;;
4812;SDS011;2420;51.202;8.698;2023-06-22T06:18:11;16.40;;;14.45;;
4812;SDS011;2420;51.202;8.698;2023-06-22T06:20:36;15.90;;;14.30;;
4812;SDS011;2420;51.202;8.698;2023-06-22T06:23:02;15.65;;;14.05;;
4812;SDS011;2420;51.202;8.698;2023-06-22T06:25:28;16.13;;;14.15;;
4812;SDS011;2420;51.202;8.698;2023-06-22T06:27:53;17.67;;;15.20;;
4812;SDS011;2420;51.202;8.698;2023-06-22T06:30:19;15.88;;;14.18;;
4812;SDS011;2420;51.202;8.698;2023-06-22T06:32:46;17.00;;;15.25;;
4812;SDS011;2420;51.202;8.698;2023-06-22T06:35:12;15.68;;;14.07;;
4812;SDS011;2420;51.202;8.698;2023-06-22T06:37:41;16.63;;;14.68;;
4812;SDS011;2420;51.202;8.698;2023-06-22T06:40:09;15.55;;;13.93;;
4812;SDS011;2420;51.202;8.698;2023-06-22T06:42:39;15.02;;;13.40;;
4812;SDS011;2420;51.202;8.698;2023-06-22T06:45:10;14.00;;;12.50;;
4812;SDS011;2420;51.202;8.698;2023-06-22T06:47:43;14.05;;;12.55;;
4812;SDS011;2420;51.202;8.698;2023-06-22T06:50:09;12.98;;;11.68;;
4812;SDS011;2420;51.202;8.698;2023-06-22T06:52:35;14.38;;;11.88;;
4812;SDS011;2420;51.202;8.698;2023-06-22T06:55:01;12.85;;;11.50;;
4812;SDS011;2420;51.202;8.698;2023-06-22T06:57:29;12.50;;;11.10;;
4812;SDS011;2420;51.202;8.698;2023-06-22T06:59:55;15.35;;;13.85;;
4812;SDS011;2420;51.202;8.698;2023-06-22T07:02:21;13.15;;;11.82;;
4812;SDS011;2420;51.202;8.698;2023-06-22T07:04:47;13.43;;;11.88;;
4812;SDS011;2420;51.202;8.698;2023-06-22T07:07:14;12.63;;;11.32;;
4812;SDS011;2420;51.202;8.698;2023-06-22T07:09:39;12.88;;;11.45;;
4812;SDS011;2420;51.202;8.698;2023-06-22T07:12:05;11.52;;;10.32;;
4812;SDS011;2420;51.202;8.698;2023-06-22T07:14:31;12.25;;;11.05;;
4812;SDS011;2420;51.202;8.698;2023-06-22T07:16:57;13.25;;;11.15;;
4812;SDS011;2420;51.202;8.698;2023-06-22T07:19:26;16.40;;;11.45;;
4812;SDS011;2420;51.202;8.698;2023-06-22T07:21:55;13.35;;;11.93;;
4812;SDS011;2420;51.202;8.698;2023-06-22T07:24:21;14.27;;;12.77;;
4812;SDS011;2420;51.202;8.698;2023-06-22T07:26:48;12.77;;;11.48;;
4812;SDS011;2420;51.202;8.698;2023-06-22T07:29:15;13.65;;;12.25;;
4812;SDS011;2420;51.202;8.698;2023-06-22T07:31:45;13.43;;;12.10;;
4812;SDS011;2420;51.202;8.698;2023-06-22T07:34:11;14.98;;;13.45;;
4812;SDS011;2420;51.202;8.698;2023-06-22T07:36:37;15.18;;;13.57;;
4812;SDS011;2420;51.202;8.698;2023-06-22T07:39:03;15.57;;;13.98;;
4812;SDS011;2420;51.202;8.698;2023-06-22T07:41:29;14.07;;;12.68;;
4812;SDS011;2420;51.202;8.698;2023-06-22T07:43:55;15.75;;;13.80;;
4812;SDS011;2420;51.202;8.698;2023-06-22T07:46:20;13.30;;;11.95;;
4812;SDS011;2420;51.202;8.698;2023-06-22T07:48:46;14.20;;;12.52;;
4812;SDS011;2420;51.202;8.698;2023-06-22T07:51:12;13.48;;;12.07;;
4812;SDS011;2420;51.202;8.698;2023-06-22T07:53:38;15.13;;;13.57;;
4812;SDS011;2420;51.202;8.698;2023-06-22T07:56:06;14.20;;;12.75;;
4812;SDS011;2420;51.202;8.698;2023-06-22T07:58:34;14.82;;;13.32;;
4812;SDS011;2420;51.202;8.698;2023-06-22T08:01:00;13.95;;;12.45;;
4812;SDS011;2420;51.202;8.698;2023-06-22T08:03:26;14.57;;;13.07;;
4812;SDS011;2420;51.202;8.698;2023-06-22T08:05:51;14.98;;;13.13;;
4812;SDS011;2420;51.202;8.698;2023-06-22T08:08:17;13.48;;;11.80;;
4812;SDS011;2420;51.202;8.698;2023-06-22T08:10:42;14.15;;;12.68;;
4812;SDS011;2420;51.202;8.698;2023-06-22T08:13:08;14.35;;;11.98;;
4812;SDS011;2420;51.202;8.698;2023-06-22T08:15:35;12.50;;;11.20;;
4812;SDS011;2420;51.202;8.698;2023-06-22T08:18:00;14.75;;;11.15;;
4812;SDS011;2420;51.202;8.698;2023-06-22T08:20:26;13.65;;;11.38;;
4812;SDS011;2420;51.202;8.698;2023-06-22T08:22:55;14.10;;;12.10;;
4812;SDS011;2420;51.202;8.698;2023-06-22T08:25:22;11.00;;;9.90;;
4812;SDS011;2420;51.202;8.698;2023-06-22T08:27:48;11.52;;;10.38;;
4812;SDS011;2420;51.202;8.698;2023-06-22T08:30:14;11.23;;;10.13;;
4812;SDS011;2420;51.202;8.698;2023-06-22T08:32:40;11.73;;;10.35;;
4812;SDS011;2420;51.202;8.698;2023-06-22T08:35:06;12.27;;;11.07;;
4812;SDS011;2420;51.202;8.698;2023-06-22T08:37:33;10.95;;;9.50;;
4812;SDS011;2420;51.202;8.698;2023-06-22T08:40:00;12.05;;;10.50;;
4812;SDS011;2420;51.202;8.698;2023-06-22T08:42:29;10.82;;;9.73;;
4812;SDS011;2420;51.202;8.698;2023-06-22T08:44:55;10.32;;;9.32;;
4812;SDS011;2420;51.202;8.698;2023-06-22T08:47:20;11.18;;;9.98;;
4812;SDS011;2420;51.202;8.698;2023-06-22T08:49:46;11.40;;;10.20;;
4812;SDS011;2420;51.202;8.698;2023-06-22T08:52:12;11.18;;;9.85;;
4812;SDS011;2420;51.202;8.698;2023-06-22T08:54:38;11.15;;;10.13;;
4812;SDS011;2420;51.202;8.698;2023-06-22T08:57:03;10.93;;;9.82;;
4812;SDS011;2420;51.202;8.698;2023-06-22T08:59:29;11.85;;;10.52;;
4812;SDS011;2420;51.202;8.698;2023-06-22T09:01:55;10.88;;;9.77;;
4812;SDS011;2420;51.202;8.698;2023-06-22T09:04:21;12.10;;;10.88;;
4812;SDS011;2420;51.202;8.698;2023-06-22T09:06:47;11.57;;;10.40;;
4812;SDS011;2420;51.202;8.698;2023-06-22T09:09:15;10.82;;;9.73;;
4812;SDS011;2420;51.202;8.698;2023-06-22T09:11:41;11.75;;;10.57;;
4812;SDS011;2420;51.202;8.698;2023-06-22T09:14:07;14.35;;;11.38;;
4812;SDS011;2420;51.202;8.698;2023-06-22T09:16:33;10.88;;;9.77;;
4812;SDS011;2420;51.202;8.698;2023-06-22T09:18:59;12.40;;;11.18;;
4812;SDS011;2420;51.202;8.698;2023-06-22T09:21:24;11.82;;;10.55;;
4812;SDS011;2420;51.202;8.698;2023-06-22T09:23:50;12.13;;;10.38;;
4812;SDS011;2420;51.202;8.698;2023-06-22T09:26:19;11.73;;;10.52;;
4812;SDS011;2420;51.202;8.698;2023-06-22T09:28:45;11.35;;;10.02;;
4812;SDS011;2420;51.202;8.698;2023-06-22T09:31:12;10.93;;;9.82;;
4812;SDS011;2420;51.202;8.698;2023-06-22T09:33:37;12.70;;;10.25;;
4812;SDS011;2420;51.202;8.698;2023-06-22T09:36:05;11.30;;;10.10;;
4812;SDS011;2420;51.202;8.698;2023-06-22T09:38:34;10.98;;;9.88;;
4812;SDS011;2420;51.202;8.698;2023-06-22T09:41:00;11.07;;;9.98;;
4812;SDS011;2420;51.202;8.698;2023-06-22T09:43:26;11.40;;;10.30;;
4812;SDS011;2420;51.202;8.698;2023-06-22T09:45:52;11.32;;;9.70;;
4812;SDS011;2420;51.202;8.698;2023-06-22T09:48:17;11.30;;;10.10;;
4812;SDS011;2420;51.202;8.698;2023-06-22T09:50:43;13.73;;;10.52;;
4812;SDS011;2420;51.202;8.698;2023-06-22T09:53:09;11.75;;;9.65;;
4812;SDS011;2420;51.202;8.698;2023-06-22T09:55:34;11.50;;;10.02;;
4812;SDS011;2420;51.202;8.698;2023-06-22T09:58:00;12.70;;;11.20;;
4812;SDS011;2420;51.202;8.698;2023-06-22T10:00:25;11.05;;;9.95;;
4812;SDS011;2420;51.202;8.698;2023-06-22T10:02:51;13.30;;;10.27;;
4812;SDS011;2420;51.202;8.698;2023-06-22T10:05:17;13.20;;;10.60;;
4812;SDS011;2420;51.202;8.698;2023-06-22T10:07:43;12.77;;;9.90;;
4812;SDS011;2420;51.202;8.698;2023-06-22T10:10:09;11.00;;;9.80;;
4812;SDS011;2420;51.202;8.698;2023-06-22T10:12:36;14.93;;;13.43;;
4812;SDS011;2420;51.202;8.698;2023-06-22T10:15:02;14.32;;;10.43;;
4812;SDS011;2420;51.202;8.698;2023-06-22T10:17:28;12.40;;;10.63;;
4812;SDS011;2420;51.202;8.698;2023-06-22T10:19:53;12.27;;;10.38;;
4812;SDS011;2420;51.202;8.698;2023-06-22T10:22:19;12.77;;;10.75;;
4812;SDS011;2420;51.202;8.698;2023-06-22T10:24:44;10.75;;;9.73;;
4812;SDS011;2420;51.202;8.698;2023-06-22T10:27:11;10.50;;;9.20;;
4812;SDS011;2420;51.202;8.698;2023-06-22T10:29:37;11.43;;;10.20;;
4812;SDS011;2420;51.202;8.698;2023-06-22T10:32:03;11.85;;;10.35;;
4812;SDS011;2420;51.202;8.698;2023-06-22T10:34:28;11.40;;;10.13;;
4812;SDS011;2420;51.202;8.698;2023-06-22T10:36:54;12.30;;;10.68;;
4812;SDS011;2420;51.202;8.698;2023-06-22T10:39:20;11.45;;;10.35;;
4812;SDS011;2420;51.202;8.698;2023-06-22T10:41:45;11.80;;;10.60;;
4812;SDS011;2420;51.202;8.698;2023-06-22T10:44:11;11.80;;;10.60;;
4812;SDS011;2420;51.202;8.698;2023-06-22T10:46:37;12.02;;;10.77;;
4812;SDS011;2420;51.202;8.698;2023-06-22T10:49:03;11.68;;;10.48;;
4812;SDS011;2420;51.202;8.698;2023-06-22T10:51:28;12.73;;;11.52;;
4812;SDS011;2420;51.202;8.698;2023-06-22T10:53:54;13.90;;;12.65;;
4812;SDS011;2420;51.202;8.698;2023-06-22T10:56:19;11.93;;;10.70;;
4812;SDS011;2420;51.202;8.698;2023-06-22T10:58:45;11.05;;;9.73;;
4812;SDS011;2420;51.202;8.698;2023-06-22T11:01:11;12.30;;;10.02;;
4812;SDS011;2420;51.202;8.698;2023-06-22T11:03:36;11.98;;;9.40;;
4812;SDS011;2420;51.202;8.698;2023-06-22T11:06:02;12.45;;;10.10;;
4812;SDS011;2420;51.202;8.698;2023-06-22T11:08:28;10.48;;;9.48;;
4812;SDS011;2420;51.202;8.698;2023-06-22T11:10:53;9.07;;;8.18;;
4812;SDS011;2420;51.202;8.698;2023-06-22T11:13:19;9.70;;;8.70;;
4812;SDS011;2420;51.202;8.698;2023-06-22T11:15:44;10.10;;;8.93;;
4812;SDS011;2420;51.202;8.698;2023-06-22T11:18:10;9.95;;;8.95;;
4812;SDS011;2420;51.202;8.698;2023-06-22T11:20:35;10.10;;;8.88;;
4812;SDS011;2420;51.202;8.698;2023-06-22T11:23:04;9.27;;;8.38;;
4812;SDS011;2420;51.202;8.698;2023-06-22T11:25:31;10.30;;;8.98;;
4812;SDS011;2420;51.202;8.698;2023-06-22T11:27:56;9.32;;;8.35;;
4812;SDS011;2420;51.202;8.698;2023-06-22T11:30:22;9.70;;;8.70;;
4812;SDS011;2420;51.202;8.698;2023-06-22T11:32:48;10.57;;;9.02;;
4812;SDS011;2420;51.202;8.698;2023-06-22T11:35:13;11.23;;;9.25;;
4812;SDS011;2420;51.202;8.698;2023-06-22T11:37:39;10.52;;;8.68;;
4812;SDS011;2420;51.202;8.698;2023-06-22T11:40:05;10.15;;;8.95;;
4812;SDS011;2420;51.202;8.698;2023-06-22T11:42:34;10.23;;;8.82;;
4812;SDS011;2420;51.202;8.698;2023-06-22T11:45:00;9.25;;;8.35;;
4812;SDS011;2420;51.202;8.698;2023-06-22T11:47:25;10.15;;;8.70;;
4812;SDS011;2420;51.202;8.698;2023-06-22T11:49:51;10.93;;;9.27;;
4812;SDS011;2420;51.202;8.698;2023-06-22T11:52:16;10.45;;;9.35;;
4812;SDS011;2420;51.202;8.698;2023-06-22T11:54:42;10.68;;;8.80;;
4812;SDS011;2420;51.202;8.698;2023-06-22T11:57:08;10.85;;;9.18;;
4812;SDS011;2420;51.202;8.698;2023-06-22T11:59:34;11.00;;;9.40;;
4812;SDS011;2420;51.202;8.698;2023-06-22T12:01:59;9.55;;;8.55;;
4812;SDS011;2420;51.202;8.698;2023-06-22T12:04:25;10.27;;;8.65;;
4812;SDS011;2420;51.202;8.698;2023-06-22T12:06:51;11.45;;;8.60;;
4812;SDS011;2420;51.202;8.698;2023-06-22T12:09:16;10.18;;;8.32;;
4812;SDS011;2420;51.202;8.698;2023-06-22T12:11:42;9.35;;;8.35;;
4812;SDS011;2420;51.202;8.698;2023-06-22T12:14:07;9.65;;;8.65;;
4812;SDS011;2420;51.202;8.698;2023-06-22T12:16:33;10.20;;;9.20;;
4812;SDS011;2420;51.202;8.698;2023-06-22T12:18:58;10.63;;;8.80;;
4812;SDS011;2420;51.202;8.698;2023-06-22T12:21:24;10.35;;;9.23;;
4812;SDS011;2420;51.202;8.698;2023-06-22T12:23:49;10.15;;;9.15;;
4812;SDS011;2420;51.202;8.698;2023-06-22T12:26:15;10.23;;;9.25;;
4812;SDS011;2420;51.202;8.698;2023-06-22T12:28:41;10.20;;;9.05;;
4812;SDS011;2420;51.202;8.698;2023-06-22T12:31:06;12.07;;;9.18;;
4812;SDS011;2420;51.202;8.698;2023-06-22T12:33:32;9.75;;;8.75;;
4812;SDS011;2420;51.202;8.698;2023-06-22T12:35:57;10.35;;;9.23;;
4812;SDS011;2420;51.202;8.698;2023-06-22T12:38:23;10.07;;;8.50;;
4812;SDS011;2420;51.202;8.698;2023-06-22T12:40:51;11.00;;;8.52;;
4812;SDS011;2420;51.202;8.698;2023-06-22T12:43:17;9.32;;;8.38;;
4812;SDS011;2420;51.202;8.698;2023-06-22T12:45:43;9.38;;;8.52;;
4812;SDS011;2420;51.202;8.698;2023-06-22T12:48:09;9.60;;;8.07;;
4812;SDS011;2420;51.202;8.698;2023-06-22T12:50:34;9.77;;;8.77;;
4812;SDS011;2420;51.202;8.698;2023-06-22T12:53:00;9.55;;;8.55;;
4812;SDS011;2420;51.202;8.698;2023-06-22T12:55:28;9.90;;;8.55;;
4812;SDS011;2420;51.202;8.698;2023-06-22T12:57:53;10.80;;;8.88;;
4812;SDS011;2420;51.202;8.698;2023-06-22T13:00:19;10.00;;;8.68;;
4812;SDS011;2420;51.202;8.698;2023-06-22T13:02:44;12.95;;;9.25;;
4812;SDS011;2420;51.202;8.698;2023-06-22T13:05:10;10.80;;;9.05;;
4812;SDS011;2420;51.202;8.698;2023-06-22T13:07:36;11.50;;;10.27;;
4812;SDS011;2420;51.202;8.698;2023-06-22T13:10:01;11.80;;;9.57;;
4812;SDS011;2420;51.202;8.698;2023-06-22T13:12:27;16.95;;;10.32;;
4812;SDS011;2420;51.202;8.698;2023-06-22T13:14:53;10.50;;;9.43;;
4812;SDS011;2420;51.202;8.698;2023-06-22T13:17:18;11.35;;;10.20;;
4812;SDS011;2420;51.202;8.698;2023-06-22T13:19:46;11.15;;;10.05;;
4812;SDS011;2420;51.202;8.698;2023-06-22T13:22:33;11.57;;;10.45;;
4812;SDS011;2420;51.202;8.698;2023-06-22T13:25:06;11.73;;;10.23;;
4812;SDS011;2420;51.202;8.698;2023-06-22T13:27:32;11.27;;;9.55;;
4812;SDS011;2420;51.202;8.698;2023-06-22T13:29:58;11.02;;;9.93;;
4812;SDS011;2420;51.202;8.698;2023-06-22T13:32:23;12.05;;;10.77;;
4812;SDS011;2420;51.202;8.698;2023-06-22T13:34:49;14.63;;;12.55;;
4812;SDS011;2420;51.202;8.698;2023-06-22T13:37:16;19.40;;;14.32;;
4812;SDS011;2420;51.202;8.698;2023-06-22T13:39:41;18.88;;;12.00;;
4812;SDS011;2420;51.202;8.698;2023-06-22T13:42:07;12.82;;;7.38;;
4812;SDS011;2420;51.202;8.698;2023-06-22T13:44:33;9.93;;;5.07;;
4812;SDS011;2420;51.202;8.698;2023-06-22T13:46:58;11.10;;;4.38;;
4812;SDS011;2420;51.202;8.698;2023-06-22T13:49:24;10.88;;;4.60;;
4812;SDS011;2420;51.202;8.698;2023-06-22T13:51:49;10.70;;;4.53;;
4812;SDS011;2420;51.202;8.698;2023-06-22T13:54:16;7.75;;;3.67;;
4812;SDS011;2420;51.202;8.698;2023-06-22T13:56:41;11.23;;;4.60;;
4812;SDS011;2420;51.202;8.698;2023-06-22T13:59:07;6.00;;;4.35;;
4812;SDS011;2420;51.202;8.698;2023-06-22T14:01:34;11.55;;;4.78;;
4812;SDS011;2420;51.202;8.698;2023-06-22T14:04:00;9.88;;;4.70;;
4812;SDS011;2420;51.202;8.698;2023-06-22T14:06:29;12.50;;;5.38;;
4812;SDS011;2420;51.202;8.698;2023-06-22T14:08:54;7.45;;;4.68;;
4812;SDS011;2420;51.202;8.698;2023-06-22T14:11:20;7.78;;;4.50;;
4812;SDS011;2420;51.202;8.698;2023-06-22T14:13:46;8.75;;;5.28;;
4812;SDS011;2420;51.202;8.698;2023-06-22T14:16:11;9.00;;;5.43;;
4812;SDS011;2420;51.202;8.698;2023-06-22T14:18:37;16.02;;;5.95;;
4812;SDS011;2420;51.202;8.698;2023-06-22T14:21:02;10.80;;;4.97;;
4812;SDS011;2420;51.202;8.698;2023-06-22T14:23:28;10.02;;;4.32;;
4812;SDS011;2420;51.202;8.698;2023-06-22T14:25:53;9.55;;;4.40;;
4812;SDS011;2420;51.202;8.698;2023-06-22T14:28:19;10.82;;;4.53;;
4812;SDS011;2420;51.202;8.698;2023-06-22T14:30:44;7.80;;;4.93;;
4812;SDS011;2420;51.202;8.698;2023-06-22T14:33:10;9.13;;;4.80;;
4812;SDS011;2420;51.202;8.698;2023-06-22T14:35:37;8.98;;;4.63;;
4812;SDS011;2420;51.202;8.698;2023-06-22T14:38:02;9.82;;;5.28;;
4812;SDS011;2420;51.202;8.698;2023-06-22T14:40:28;8.80;;;5.00;;
4812;SDS011;2420;51.202;8.698;2023-06-22T14:42:53;8.68;;;4.88;;
4812;SDS011;2420;51.202;8.698;2023-06-22T14:45:21;10.85;;;4.63;;
4812;SDS011;2420;51.202;8.698;2023-06-22T14:47:50;9.63;;;5.50;;
4812;SDS011;2420;51.202;8.698;2023-06-22T14:50:15;11.52;;;5.65;;
4812;SDS011;2420;51.202;8.698;2023-06-22T14:52:42;9.77;;;5.30;;
4812;SDS011;2420;51.202;8.698;2023-06-22T14:55:07;12.20;;;5.50;;